createdAt,value
2023-05-21T00:00:10.941Z,100315.34
2023-05-21T00:00:30.605Z,100307.47
2023-05-21T00:00:43.611Z,100301.84
2023-05-21T00:00:57.015Z,100301.47
2023-05-21T00:01:10.024Z,100302.28
2023-05-21T00:01:23.516Z,100310.16
2023-05-21T00:01:41.636Z,100299.25
2023-05-21T00:01:54.286Z,100307.38
2023-05-21T00:02:07.616Z,100305.81
2023-05-21T00:02:23.833Z,100305.81
2023-05-21T00:02:41.362Z,100303.00
2023-05-21T00:02:56.253Z,100314.97
2023-05-21T00:03:09.056Z,100307.94
2023-05-21T00:03:22.229Z,100308.78
2023-05-21T00:03:35.017Z,100313.34
2023-05-21T00:03:50.939Z,100292.91
2023-05-21T00:04:12.034Z,100316.88
2023-05-21T00:04:25.458Z,100298.91
2023-05-21T00:04:38.706Z,100313.91
2023-05-21T00:04:51.728Z,100308.19
2023-05-21T00:05:04.923Z,100313.34
2023-05-21T00:05:18.006Z,100308.88
2023-05-21T00:05:31.041Z,100317.91
2023-05-21T00:05:44.390Z,100314.41
2023-05-21T00:06:00.047Z,100307.22
2023-05-21T00:06:13.002Z,100302.91
2023-05-21T00:06:28.824Z,100313.00
2023-05-21T00:06:41.850Z,100314.63
2023-05-21T00:06:57.223Z,100308.06
2023-05-21T00:07:10.050Z,100315.91
2023-05-21T00:07:22.382Z,100319.47
2023-05-21T00:07:34.766Z,100308.53
2023-05-21T00:07:47.428Z,100322.97
2023-05-21T00:07:59.809Z,100317.00
2023-05-21T00:08:12.238Z,100323.19
2023-05-21T00:08:24.703Z,100322.38
2023-05-21T00:08:37.298Z,100319.09
2023-05-21T00:08:49.708Z,100319.56
2023-05-21T00:09:02.534Z,100320.97
2023-05-21T00:09:15.111Z,100329.69
2023-05-21T00:09:28.988Z,100315.00
2023-05-21T00:09:41.475Z,100320.97
2023-05-21T00:09:57.081Z,100325.31
2023-05-21T00:10:10.266Z,100313.69
2023-05-21T00:10:23.129Z,100321.09
2023-05-21T00:10:35.802Z,100327.19
2023-05-21T00:10:49.088Z,100322.28
2023-05-21T00:11:01.509Z,100309.47
2023-05-21T00:11:13.587Z,100328.50
2023-05-21T00:11:26.052Z,100324.97
2023-05-21T00:11:39.052Z,100320.38
2023-05-21T00:11:51.361Z,100308.63
2023-05-21T00:12:04.517Z,100319.44
2023-05-21T00:12:17.597Z,100319.69
2023-05-21T00:12:30.078Z,100321.91
2023-05-21T00:12:42.904Z,100313.00
2023-05-21T00:12:55.655Z,100327.31
2023-05-21T00:13:08.251Z,100317.81
2023-05-21T00:13:20.572Z,100317.59
2023-05-21T00:13:33.516Z,100322.72
2023-05-21T00:13:48.825Z,100323.78
2023-05-21T00:14:04.576Z,100318.41
2023-05-21T00:14:17.064Z,100328.13
2023-05-21T00:14:29.592Z,100319.44
2023-05-21T00:14:42.610Z,100314.88
2023-05-21T00:14:55.388Z,100318.41
2023-05-21T00:15:09.479Z,100312.03
2023-05-21T00:15:22.756Z,100316.72
2023-05-21T00:15:35.930Z,100305.72
2023-05-21T00:15:49.340Z,100325.91
2023-05-21T00:16:01.766Z,100326.50
2023-05-21T00:16:14.526Z,100315.00
2023-05-21T00:16:27.120Z,100312.28
2023-05-21T00:16:39.873Z,100322.84
2023-05-21T00:16:52.887Z,100316.13
2023-05-21T00:17:05.804Z,100321.53
2023-05-21T00:17:23.212Z,100317.22
2023-05-21T00:17:35.814Z,100322.63
2023-05-21T00:17:48.516Z,100315.22
2023-05-21T00:18:03.624Z,100319.31
2023-05-21T00:18:16.673Z,100314.16
2023-05-21T00:18:29.521Z,100310.03
2023-05-21T00:18:41.988Z,100307.81
2023-05-21T00:18:55.111Z,100318.72
2023-05-21T00:19:07.607Z,100320.38
2023-05-21T00:19:20.225Z,100316.84
2023-05-21T00:19:32.926Z,100317.69
2023-05-21T00:19:45.785Z,100311.91
2023-05-21T00:19:58.790Z,100315.44
2023-05-21T00:20:11.895Z,100299.72
2023-05-21T00:20:24.764Z,100320.38
2023-05-21T00:20:37.993Z,100314.41
2023-05-21T00:20:52.655Z,100304.31
2023-05-21T00:21:05.618Z,100309.44
2023-05-21T00:21:18.655Z,100312.50
2023-05-21T00:21:31.116Z,100317.09
2023-05-21T00:21:46.113Z,100314.41
2023-05-21T00:21:58.625Z,100313.81
2023-05-21T00:22:11.677Z,100315.44
2023-05-21T00:22:24.031Z,100308.41
2023-05-21T00:22:36.692Z,100308.88
2023-05-21T00:22:51.859Z,100317.31
2023-05-21T00:23:04.515Z,100316.50
2023-05-21T00:23:17.343Z,100303.72
2023-05-21T00:23:29.812Z,100301.44
2023-05-21T00:23:42.822Z,100312.16
2023-05-21T00:23:56.623Z,100307.22
2023-05-21T00:24:12.446Z,100314.03
2023-05-21T00:24:25.128Z,100312.41
2023-05-21T00:24:39.739Z,100315.91
2023-05-21T00:24:52.992Z,100310.16
2023-05-21T00:25:06.632Z,100320.50
2023-05-21T00:25:19.457Z,100315.53
2023-05-21T00:25:32.108Z,100308.16
2023-05-21T00:25:44.707Z,100318.84
2023-05-21T00:25:57.298Z,100314.72
2023-05-21T00:26:12.526Z,100318.84
2023-05-21T00:26:27.980Z,100320.72
2023-05-21T00:26:44.470Z,100317.66
2023-05-21T00:26:57.356Z,100318.25
2023-05-21T00:27:10.545Z,100315.53
2023-05-21T00:27:23.344Z,100316.03
2023-05-21T00:27:35.923Z,100318.50
2023-05-21T00:27:48.465Z,100313.91
2023-05-21T00:28:01.001Z,100312.13
2023-05-21T00:28:13.584Z,100321.41
2023-05-21T00:28:26.391Z,100318.94
2023-05-21T00:28:40.280Z,100316.03
2023-05-21T00:28:52.973Z,100314.03
2023-05-21T00:29:06.432Z,100320.59
2023-05-21T00:29:19.110Z,100314.84
2023-05-21T00:29:31.715Z,100326.81
2023-05-21T00:29:44.620Z,100319.78
2023-05-21T00:29:56.939Z,100327.03
2023-05-21T00:30:10.046Z,100321.66
2023-05-21T00:30:22.573Z,100315.91
2023-05-21T00:30:35.139Z,100302.03
2023-05-21T00:30:47.977Z,100321.91
2023-05-21T00:31:00.350Z,100314.03
2023-05-21T00:31:12.720Z,100313.44
2023-05-21T00:31:25.155Z,100306.03
2023-05-21T00:31:37.711Z,100320.81
2023-05-21T00:31:49.974Z,100317.53
2023-05-21T00:32:02.732Z,100310.94
2023-05-21T00:32:15.286Z,100317.31
2023-05-21T00:32:33.283Z,100313.66
2023-05-21T00:32:45.852Z,100321.06
2023-05-21T00:32:58.928Z,100317.53
2023-05-21T00:33:11.659Z,100323.75
2023-05-21T00:33:24.566Z,100312.63
2023-05-21T00:33:37.170Z,100309.31
2023-05-21T00:33:49.377Z,100312.03
2023-05-21T00:34:02.003Z,100322.13
2023-05-21T00:34:15.051Z,100321.31
2023-05-21T00:34:28.138Z,100314.94
2023-05-21T00:34:41.961Z,100321.53
2023-05-21T00:34:57.017Z,100320.72
2023-05-21T00:35:10.022Z,100323.03
2023-05-21T00:35:22.726Z,100312.25
2023-05-21T00:35:35.724Z,100316.81
2023-05-21T00:35:48.409Z,100325.53
2023-05-21T00:36:01.138Z,100321.75
2023-05-21T00:36:13.543Z,100329.03
2023-05-21T00:36:28.666Z,100322.81
2023-05-21T00:36:41.155Z,100322.00
2023-05-21T00:36:53.776Z,100325.75
2023-05-21T00:37:06.234Z,100325.75
2023-05-21T00:37:19.027Z,100318.13
2023-05-21T00:37:31.646Z,100330.91
2023-05-21T00:37:44.367Z,100328.69
2023-05-21T00:37:57.036Z,100327.84
2023-05-21T00:38:09.762Z,100326.81
2023-05-21T00:38:22.891Z,100325.16
2023-05-21T00:38:35.551Z,100319.41
2023-05-21T00:38:48.879Z,100339.22
2023-05-21T00:39:01.370Z,100327.84
2023-05-21T00:39:14.430Z,100328.09
2023-05-21T00:39:26.760Z,100321.72
2023-05-21T00:39:40.888Z,100332.69
2023-05-21T00:39:53.653Z,100328.09
2023-05-21T00:40:07.590Z,100328.91
2023-05-21T00:40:22.758Z,100324.59
2023-05-21T00:40:35.841Z,100313.41
2023-05-21T00:40:48.761Z,100317.41
2023-05-21T00:41:02.584Z,100324.59
2023-05-21T00:41:17.727Z,100326.44
2023-05-21T00:41:32.514Z,100308.25
2023-05-21T00:41:45.024Z,100326.69
2023-05-21T00:41:57.905Z,100315.75
2023-05-21T00:42:10.798Z,100309.75
2023-05-21T00:42:25.860Z,100310.00
2023-05-21T00:42:38.564Z,100317.19
2023-05-21T00:42:51.604Z,100305.91
2023-05-21T00:43:04.679Z,100317.03
2023-05-21T00:43:17.785Z,100312.69
2023-05-21T00:43:30.679Z,100310.59
2023-05-21T00:43:45.997Z,100319.28
2023-05-21T00:43:58.600Z,100305.03
2023-05-21T00:44:11.442Z,100310.69
2023-05-21T00:44:23.958Z,100314.34
2023-05-21T00:44:39.557Z,100304.69
2023-05-21T00:44:52.501Z,100305.31
2023-05-21T00:45:06.079Z,100306.34
2023-05-21T00:45:21.754Z,100313.50
2023-05-21T00:45:34.771Z,100307.53
2023-05-21T00:45:48.330Z,100314.59
2023-05-21T00:46:03.783Z,100316.22
2023-05-21T00:46:23.547Z,100305.31
2023-05-21T00:46:37.574Z,100300.34
2023-05-21T00:46:50.674Z,100314.81
2023-05-21T00:47:03.804Z,100312.09
2023-05-21T00:47:16.681Z,100314.81
2023-05-21T00:47:29.800Z,100310.69
2023-05-21T00:47:45.901Z,100319.38
2023-05-21T00:47:59.099Z,100303.50
2023-05-21T00:48:15.047Z,100310.69
2023-05-21T00:48:28.427Z,100312.81
2023-05-21T00:48:40.924Z,100313.41
2023-05-21T00:48:56.035Z,100307.88
2023-05-21T00:49:11.604Z,100308.09
2023-05-21T00:49:24.756Z,100314.44
2023-05-21T00:49:37.896Z,100310.91
2023-05-21T00:49:51.407Z,100314.91
2023-05-21T00:50:05.855Z,100311.59
2023-05-21T00:50:18.670Z,100319.81
2023-05-21T00:50:31.658Z,100301.28
2023-05-21T00:50:47.066Z,100305.03
2023-05-21T00:50:59.798Z,100311.59
2023-05-21T00:51:16.300Z,100306.44
2023-05-21T00:51:29.532Z,100320.91
2023-05-21T00:51:42.497Z,100320.09
2023-05-21T00:51:55.891Z,100313.84
2023-05-21T00:52:08.808Z,100307.03
2023-05-21T00:52:21.535Z,100302.31
2023-05-21T00:52:34.615Z,100295.63
2023-05-21T00:52:48.000Z,100301.03
2023-05-21T00:53:03.616Z,100304.94
2023-05-21T00:53:17.549Z,100312.22
2023-05-21T00:53:32.590Z,100308.44
2023-05-21T00:53:45.943Z,100309.50
2023-05-21T00:53:59.019Z,100311.13
2023-05-21T00:54:14.582Z,100311.38
2023-05-21T00:54:28.305Z,100304.81
2023-05-21T00:54:42.434Z,100317.59
2023-05-21T00:54:55.354Z,100313.28
2023-05-21T00:55:11.535Z,100313.28
2023-05-21T00:55:25.266Z,100317.00
2023-05-21T00:55:38.399Z,100311.59
2023-05-21T00:55:55.034Z,100311.84
2023-05-21T00:56:07.958Z,100312.09
2023-05-21T00:56:21.530Z,100303.88
2023-05-21T00:56:34.570Z,100312.53
2023-05-21T00:56:48.515Z,100313.72
2023-05-21T00:57:05.634Z,100318.28
2023-05-21T00:57:20.321Z,100310.19
2023-05-21T00:59:51.586Z,100315.69
2023-05-21T01:00:06.567Z,100312.78
2023-05-21T01:00:25.878Z,100317.34
2023-05-21T01:00:38.792Z,100314.06
2023-05-21T01:00:53.296Z,100307.59
2023-05-21T01:01:05.876Z,100314.06
2023-05-21T01:01:18.783Z,100315.91
2023-05-21T01:01:32.756Z,100309.69
2023-05-21T01:01:45.782Z,100315.09
2023-05-21T01:01:58.740Z,100320.50
2023-05-21T01:02:11.252Z,100318.00
2023-05-21T01:02:23.780Z,100315.56
2023-05-21T01:02:37.560Z,100312.63
2023-05-21T01:02:50.666Z,100320.97
2023-05-21T01:03:04.197Z,100314.75
2023-05-21T01:03:17.552Z,100316.47
2023-05-21T01:03:30.762Z,100317.44
2023-05-21T01:03:43.954Z,100320.97
2023-05-21T01:03:56.719Z,100319.91
2023-05-21T01:04:09.482Z,100326.09
2023-05-21T01:04:23.314Z,100316.38
2023-05-21T01:04:36.760Z,100304.06
2023-05-21T01:04:51.819Z,100305.47
2023-05-21T01:05:04.981Z,100318.00
2023-05-21T01:05:17.989Z,100304.66
2023-05-21T01:05:31.055Z,100315.56
2023-05-21T01:05:43.683Z,100313.91
2023-05-21T01:05:56.686Z,100313.91
2023-05-21T01:06:10.793Z,100315.78
2023-05-21T01:06:23.526Z,100317.66
2023-05-21T01:06:35.711Z,100306.75
2023-05-21T01:06:47.940Z,100296.63
2023-05-21T01:07:00.564Z,100312.28
2023-05-21T01:07:13.795Z,100303.19
2023-05-21T01:07:27.000Z,100316.00
2023-05-21T01:07:42.249Z,100301.34
2023-05-21T01:07:58.290Z,100311.47
2023-05-21T01:08:11.310Z,100307.56
2023-05-21T01:08:23.998Z,100311.69
2023-05-21T01:08:41.058Z,100308.00
2023-05-21T01:08:55.281Z,100304.47
2023-05-21T01:09:10.842Z,100308.16
2023-05-21T01:09:23.437Z,100304.06
2023-05-21T01:09:35.843Z,100304.28
2023-05-21T01:09:49.627Z,100306.50
2023-05-21T01:10:03.555Z,100309.19
2023-05-21T01:10:16.456Z,100312.75
2023-05-21T01:10:29.805Z,100310.03
2023-05-21T01:10:43.060Z,100310.25
2023-05-21T01:10:55.758Z,100313.56
2023-05-21T01:11:09.719Z,100307.56
2023-05-21T01:11:33.486Z,100309.19
2023-05-21T01:11:48.986Z,100299.53
2023-05-21T01:12:02.049Z,100298.25
2023-05-21T01:12:17.599Z,100309.19
2023-05-21T01:12:32.089Z,100308.00
2023-05-21T01:12:47.867Z,100310.91
2023-05-21T01:13:01.141Z,100299.06
2023-05-21T01:13:14.811Z,100305.91
2023-05-21T01:13:27.913Z,100316.69
2023-05-21T01:13:41.898Z,100308.84
2023-05-21T01:13:54.848Z,100305.91
2023-05-21T01:14:08.473Z,100311.53
2023-05-21T01:14:22.672Z,100308.84
2023-05-21T01:14:36.616Z,100304.47
2023-05-21T01:14:49.865Z,100309.03
2023-05-21T01:15:03.161Z,100305.31
2023-05-21T01:15:15.963Z,100308.84
2023-05-21T01:15:31.576Z,100296.03
2023-05-21T01:15:44.613Z,100299.53
2023-05-21T01:15:58.606Z,100310.69
2023-05-21T01:16:11.801Z,100304.94
2023-05-21T01:16:24.561Z,100310.69
2023-05-21T01:16:38.330Z,100307.41
2023-05-21T01:16:51.893Z,100299.06
2023-05-21T01:17:06.587Z,100294.81
2023-05-21T01:17:19.837Z,100302.59
2023-05-21T01:17:32.867Z,100305.53
2023-05-21T01:17:46.579Z,100303.44
2023-05-21T01:17:59.302Z,100302.81
2023-05-21T01:18:15.329Z,100302.59
2023-05-21T01:18:27.789Z,100295.66
2023-05-21T01:18:40.704Z,100307.41
2023-05-21T01:18:53.664Z,100306.81
2023-05-21T01:19:07.533Z,100307.16
2023-05-21T01:19:22.183Z,100309.84
2023-05-21T01:19:34.560Z,100311.53
2023-05-21T01:19:49.814Z,100306.16
2023-05-21T01:20:02.411Z,100306.34
2023-05-21T01:20:20.951Z,100299.53
2023-05-21T01:20:36.486Z,100303.66
2023-05-21T01:20:49.432Z,100307.63
2023-05-21T01:21:02.460Z,100298.72
2023-05-21T01:21:14.909Z,100305.53
2023-05-21T01:21:32.021Z,100307.41
2023-05-21T01:21:47.384Z,100295.66
2023-05-21T01:22:03.807Z,100298.13
2023-05-21T01:22:18.132Z,100298.47
2023-05-21T01:22:32.969Z,100306.00
2023-05-21T01:22:53.268Z,100301.63
2023-05-21T01:23:05.913Z,100302.69
2023-05-21T01:23:19.555Z,100290.50
2023-05-21T01:23:34.386Z,100299.75
2023-05-21T01:23:47.333Z,100298.13
2023-05-21T01:24:00.039Z,100305.16
2023-05-21T01:24:12.647Z,100290.13
2023-05-21T01:24:25.375Z,100292.94
2023-05-21T01:24:39.653Z,100297.53
2023-05-21T01:24:54.060Z,100308.09
2023-05-21T01:25:07.463Z,100296.94
2023-05-21T01:25:20.018Z,100296.72
2023-05-21T01:25:32.355Z,100296.72
2023-05-21T01:25:44.946Z,100300.00
2023-05-21T01:25:57.753Z,100297.53
2023-05-21T01:26:10.348Z,100285.75
2023-05-21T01:26:23.101Z,100288.47
2023-05-21T01:26:35.492Z,100295.03
2023-05-21T01:26:48.258Z,100296.13
2023-05-21T01:27:03.150Z,100302.91
2023-05-21T01:27:16.082Z,100282.50
2023-05-21T01:27:29.104Z,100295.28
2023-05-21T01:27:41.394Z,100298.81
2023-05-21T01:27:54.014Z,100286.81
2023-05-21T01:28:06.489Z,100296.72
2023-05-21T01:28:19.142Z,100302.53
2023-05-21T01:28:31.945Z,100298.00
2023-05-21T01:28:44.409Z,100297.16
2023-05-21T01:28:57.044Z,100298.69
2023-05-21T01:29:09.850Z,100291.63
2023-05-21T01:29:22.210Z,100298.44
2023-05-21T01:29:34.704Z,100304.41
2023-05-21T01:29:47.424Z,100301.13
2023-05-21T01:30:02.893Z,100291.41
2023-05-21T01:30:19.239Z,100301.38
2023-05-21T01:30:31.858Z,100291.28
2023-05-21T01:30:44.570Z,100297.41
2023-05-21T01:31:03.795Z,100303.81
2023-05-21T01:31:23.015Z,100295.38
2023-05-21T01:31:41.245Z,100301.38
2023-05-21T01:31:59.901Z,100303.00
2023-05-21T01:32:19.983Z,100306.78
2023-05-21T01:32:38.809Z,100293.13
2023-05-21T01:33:00.810Z,100307.59
2023-05-21T01:33:18.777Z,100304.28
2023-05-21T01:33:39.191Z,100299.13
2023-05-21T01:33:55.461Z,100297.22
2023-05-21T01:34:12.129Z,100296.28
2023-05-21T01:34:32.858Z,100299.13
2023-05-21T01:34:51.021Z,100306.38
2023-05-21T01:35:08.488Z,100292.19
2023-05-21T01:35:22.927Z,100301.69
2023-05-21T01:35:39.692Z,100306.00
2023-05-21T01:36:12.455Z,100303.31
2023-05-21T01:36:29.444Z,100303.78
2023-05-21T01:36:49.413Z,100310.38
2023-05-21T01:37:13.482Z,100306.00
2023-05-21T01:37:30.964Z,100298.97
2023-05-21T01:37:48.604Z,100304.00
2023-05-21T01:38:08.776Z,100307.06
2023-05-21T01:38:28.654Z,100307.06
2023-05-21T01:38:44.006Z,100308.94
2023-05-21T01:39:01.928Z,100304.84
2023-05-21T01:39:18.997Z,100298.59
2023-05-21T01:39:38.529Z,100302.75
2023-05-21T01:39:55.688Z,100299.06
2023-05-21T01:40:14.317Z,100301.06
2023-05-21T01:40:32.526Z,100295.78
2023-05-21T01:40:52.810Z,100307.53
2023-05-21T01:41:11.203Z,100304.84
2023-05-21T01:41:27.213Z,100296.84
2023-05-21T01:41:43.959Z,100300.94
2023-05-21T01:41:57.788Z,100297.66
2023-05-21T01:42:11.834Z,100293.53
2023-05-21T01:42:29.288Z,100302.56
2023-05-21T01:42:47.618Z,100308.81
2023-05-21T01:43:00.511Z,100300.72
2023-05-21T01:43:14.852Z,100311.72
2023-05-21T01:43:29.711Z,100295.41
2023-05-21T01:43:48.660Z,100293.75
2023-05-21T01:44:02.501Z,100297.28
2023-05-21T01:44:18.822Z,100296.25
2023-05-21T01:44:32.317Z,100308.22
2023-05-21T01:44:45.376Z,100312.75
2023-05-21T01:45:00.019Z,100309.03
2023-05-21T01:45:16.067Z,100310.06
2023-05-21T01:45:31.892Z,100301.97
2023-05-21T01:45:46.453Z,100304.94
2023-05-21T01:46:00.081Z,100310.31
2023-05-21T01:46:26.527Z,100310.31
2023-05-21T01:46:40.178Z,100299.16
2023-05-21T01:46:53.717Z,100310.31
2023-05-21T01:47:07.057Z,100310.31
2023-05-21T01:47:24.735Z,100293.28
2023-05-21T01:47:39.982Z,100313.59
2023-05-21T01:47:56.819Z,100299.97
2023-05-21T01:48:13.928Z,100299.16
2023-05-21T01:48:29.070Z,100302.44
2023-05-21T01:48:42.645Z,100302.91
2023-05-21T01:48:57.064Z,100305.34
2023-05-21T01:49:10.771Z,100309.47
2023-05-21T01:49:23.694Z,100300.44
2023-05-21T01:49:36.713Z,100288.84
2023-05-21T01:49:50.642Z,100293.97
2023-05-21T01:50:04.970Z,100298.56
2023-05-21T01:50:19.121Z,100305.13
2023-05-21T01:50:32.416Z,100305.13
2023-05-21T01:50:46.439Z,100295.25
2023-05-21T01:51:04.631Z,100307.84
2023-05-21T01:51:17.471Z,100305.13
2023-05-21T01:51:30.983Z,100305.13
2023-05-21T01:51:44.704Z,100299.16
2023-05-21T01:51:57.711Z,100290.13
2023-05-21T01:52:10.563Z,100295.41
2023-05-21T01:52:23.226Z,100298.94
2023-05-21T01:52:36.723Z,100301.63
2023-05-21T01:52:50.098Z,100296.66
2023-05-21T01:53:03.915Z,100301.84
2023-05-21T01:53:16.560Z,100303.94
2023-05-21T01:53:28.879Z,100296.91
2023-05-21T01:53:41.452Z,100300.22
2023-05-21T01:53:54.052Z,100295.03
2023-05-21T01:54:09.808Z,100301.84
2023-05-21T01:54:22.351Z,100289.25
2023-05-21T01:54:35.105Z,100291.16
2023-05-21T01:54:47.388Z,100297.53
2023-05-21T01:55:00.116Z,100309.13
2023-05-21T01:55:12.623Z,100304.53
2023-05-21T01:55:25.158Z,100297.13
2023-05-21T01:55:38.171Z,100298.34
2023-05-21T01:55:50.748Z,100297.13
2023-05-21T01:56:03.288Z,100300.44
2023-05-21T01:56:16.180Z,100308.72
2023-05-21T01:56:28.569Z,100303.59
2023-05-21T01:56:40.809Z,100302.06
2023-05-21T01:56:53.302Z,100291.16
2023-05-21T01:57:08.807Z,100300.66
2023-05-21T01:57:21.923Z,100296.09
2023-05-21T01:57:34.392Z,100309.56
2023-05-21T01:57:46.794Z,100308.53
2023-05-21T01:58:02.334Z,100301.72
2023-05-21T01:58:15.512Z,100307.91
2023-05-21T01:58:28.078Z,100307.44
2023-05-21T01:58:41.200Z,100315.78
2023-05-21T01:58:53.459Z,100315.31
2023-05-21T01:59:06.290Z,100307.91
2023-05-21T01:59:18.810Z,100304.63
2023-05-21T01:59:31.472Z,100303.13
2023-05-21T01:59:45.767Z,100293.25
2023-05-21T01:59:59.345Z,100303.34
2023-05-21T02:00:13.517Z,100310.41
2023-05-21T02:00:29.026Z,100298.88
2023-05-21T02:00:42.407Z,100297.22
2023-05-21T02:00:57.798Z,100312.72
2023-05-21T02:01:12.744Z,100305.91
2023-05-21T02:01:25.612Z,100307.56
2023-05-21T02:01:38.114Z,100308.97
2023-05-21T02:01:52.494Z,100312.94
2023-05-21T02:02:05.223Z,100307.56
2023-05-21T02:02:17.613Z,100306.97
2023-05-21T02:02:30.465Z,100309.66
2023-05-21T02:02:43.577Z,100310.25
2023-05-21T02:02:56.673Z,100306.50
2023-05-21T02:03:12.565Z,100306.50
2023-05-21T02:03:27.378Z,100308.59
2023-05-21T02:03:39.877Z,100308.38
2023-05-21T02:03:52.619Z,100293.31
2023-05-21T02:04:10.989Z,100312.94
2023-05-21T02:04:23.710Z,100302.00
2023-05-21T02:04:35.997Z,100298.50
2023-05-21T02:04:48.706Z,100310.47
2023-05-21T02:05:01.063Z,100310.00
2023-05-21T02:05:13.835Z,100297.91
2023-05-21T02:05:26.591Z,100304.88
2023-05-21T02:05:38.947Z,100306.72
2023-05-21T02:05:51.649Z,100307.56
2023-05-21T02:06:03.998Z,100305.91
2023-05-21T02:06:16.540Z,100306.72
2023-05-21T02:06:29.088Z,100300.16
2023-05-21T02:06:41.475Z,100312.94
2023-05-21T02:06:53.988Z,100299.31
2023-05-21T02:07:06.518Z,100306.72
2023-05-21T02:07:19.007Z,100293.56
2023-05-21T02:07:33.865Z,100298.88
2023-05-21T02:07:49.734Z,100304.47
2023-05-21T02:08:04.713Z,100299.09
2023-05-21T02:08:17.163Z,100308.81
2023-05-21T02:08:29.637Z,100303.41
2023-05-21T02:08:42.650Z,100299.78
2023-05-21T02:08:55.533Z,100306.13
2023-05-21T02:09:08.329Z,100300.38
2023-05-21T02:09:20.803Z,100302.25
2023-05-21T02:09:33.163Z,100304.94
2023-05-21T02:09:45.965Z,100310.69
2023-05-21T02:09:58.664Z,100299.91
2023-05-21T02:10:12.011Z,100305.97
2023-05-21T02:10:24.550Z,100297.91
2023-05-21T02:10:37.789Z,100306.97
2023-05-21T02:10:50.984Z,100300.59
2023-05-21T02:11:03.519Z,100298.13
2023-05-21T02:11:16.020Z,100299.91
2023-05-21T02:11:28.767Z,100301.78
2023-05-21T02:11:43.449Z,100302.84
2023-05-21T02:11:56.381Z,100297.69
2023-05-21T02:12:09.294Z,100292.16
2023-05-21T02:12:21.767Z,100300.84
2023-05-21T02:12:34.403Z,100304.94
2023-05-21T02:12:46.802Z,100305.53
2023-05-21T02:12:59.341Z,100287.78
2023-05-21T02:13:11.735Z,100296.00
2023-05-21T02:13:26.033Z,100303.06
2023-05-21T02:13:39.400Z,100304.69
2023-05-21T02:13:52.439Z,100303.06
2023-05-21T02:14:04.728Z,100293.19
2023-05-21T02:14:20.297Z,100299.78
2023-05-21T02:14:32.581Z,100307.66
2023-05-21T02:14:44.717Z,100302.25
2023-05-21T02:14:57.615Z,100303.28
2023-05-21T02:15:10.158Z,100305.16
2023-05-21T02:15:22.744Z,100301.66
2023-05-21T02:15:35.230Z,100296.47
2023-05-21T02:15:47.887Z,100298.94
2023-05-21T02:16:00.915Z,100306.22
2023-05-21T02:16:13.208Z,100304.34
2023-05-21T02:16:26.409Z,100301.06
2023-05-21T02:16:38.775Z,100298.94
2023-05-21T02:16:51.027Z,100295.28
2023-05-21T02:17:03.771Z,100299.78
2023-05-21T02:17:16.597Z,100295.19
2023-05-21T02:17:29.485Z,100295.44
2023-05-21T02:17:42.494Z,100301.41
2023-05-21T02:17:57.458Z,100299.56
2023-05-21T02:18:13.063Z,100289.06
2023-05-21T02:18:25.487Z,100296.47
2023-05-21T02:18:38.119Z,100303.28
2023-05-21T02:18:50.546Z,100289.66
2023-05-21T02:19:03.515Z,100301.19
2023-05-21T02:19:19.337Z,100297.06
2023-05-21T02:19:31.845Z,100290.06
2023-05-21T02:19:44.290Z,100300.00
2023-05-21T02:19:56.957Z,100290.50
2023-05-21T02:20:10.470Z,100294.59
2023-05-21T02:20:25.494Z,100293.56
2023-05-21T02:20:38.050Z,100300.59
2023-05-21T02:20:50.418Z,100294.38
2023-05-21T02:21:02.876Z,100292.28
2023-05-21T02:21:15.662Z,100299.56
2023-05-21T02:21:27.962Z,100287.19
2023-05-21T02:21:40.040Z,100292.16
2023-05-21T02:21:52.363Z,100296.00
2023-05-21T02:22:05.380Z,100294.00
2023-05-21T02:22:17.856Z,100289.88
2023-05-21T02:22:32.738Z,100305.16
2023-05-21T02:22:46.726Z,100293.41
2023-05-21T02:22:59.333Z,100296.94
2023-05-21T02:23:13.367Z,100308.06
2023-05-21T02:23:25.780Z,100289.28
2023-05-21T02:23:38.630Z,100298.56
2023-05-21T02:23:51.173Z,100290.34
2023-05-21T02:24:03.949Z,100293.41
2023-05-21T02:24:16.543Z,100304.78
2023-05-21T02:24:29.534Z,100288.47
2023-05-21T02:24:42.022Z,100301.25
2023-05-21T02:24:54.434Z,100295.06
2023-05-21T02:25:08.481Z,100294.47
2023-05-21T02:25:21.250Z,100299.63
2023-05-21T02:25:33.894Z,100307.72
2023-05-21T02:25:46.664Z,100295.28
2023-05-21T02:25:59.688Z,100300.66
2023-05-21T02:26:12.086Z,100299.63
2023-05-21T02:26:24.776Z,100297.16
2023-05-21T02:26:39.975Z,100294.66
2023-05-21T02:26:52.450Z,100288.69
2023-05-21T02:27:05.394Z,100288.34
2023-05-21T02:27:17.611Z,100289.06
2023-05-21T02:27:30.033Z,100290.81
2023-05-21T02:27:43.502Z,100299.03
2023-05-21T02:27:55.967Z,100296.19
2023-05-21T02:28:08.493Z,100283.75
2023-05-21T02:28:21.487Z,100292.81
2023-05-21T02:28:34.372Z,100297.38
2023-05-21T02:28:46.799Z,100288.34
2023-05-21T02:29:04.913Z,100297.38
2023-05-21T02:29:20.047Z,100294.47
2023-05-21T02:29:32.566Z,100297.38
2023-05-21T02:29:45.449Z,100283.75
2023-05-21T02:29:58.153Z,100295.13
2023-05-21T02:30:12.524Z,100300.31
2023-05-21T02:30:25.164Z,100290.34
2023-05-21T02:30:38.574Z,100299.25
2023-05-21T02:30:51.348Z,100286.66
2023-05-21T02:31:03.712Z,100295.75
2023-05-21T02:31:16.379Z,100299.25
2023-05-21T02:31:28.790Z,100296.78
2023-05-21T02:31:41.425Z,100290.22
2023-05-21T02:31:54.069Z,100288.53
2023-05-21T02:32:10.689Z,100295.13
2023-05-21T02:32:28.339Z,100296.78
2023-05-21T02:32:40.976Z,100290.22
2023-05-21T02:32:54.148Z,100300.31
2023-05-21T02:33:06.600Z,100291.84
2023-05-21T02:33:19.765Z,100292.91
2023-05-21T02:33:32.309Z,100300.53
2023-05-21T02:33:45.028Z,100287.34
2023-05-21T02:33:57.673Z,100288.78
2023-05-21T02:34:10.635Z,100301.59
2023-05-21T02:34:25.150Z,100296.19
2023-05-21T02:34:38.103Z,100297.84
2023-05-21T02:34:50.607Z,100296.41
2023-05-21T02:35:04.768Z,100285.25
2023-05-21T02:35:19.078Z,100294.75
2023-05-21T02:35:31.836Z,100289.59
2023-05-21T02:35:44.569Z,100293.72
2023-05-21T02:35:57.176Z,100293.50
2023-05-21T02:36:10.477Z,100289.34
2023-05-21T02:36:22.909Z,100298.03
2023-05-21T02:36:35.497Z,100298.91
2023-05-21T02:36:48.157Z,100287.94
2023-05-21T02:37:00.652Z,100295.34
2023-05-21T02:37:13.786Z,100295.34
2023-05-21T02:37:27.560Z,100299.72
2023-05-21T02:37:40.803Z,100297.84
2023-05-21T02:37:55.343Z,100294.31
2023-05-21T02:38:08.023Z,100283.84
2023-05-21T02:38:22.904Z,100292.91
2023-05-21T02:38:35.674Z,100300.75
2023-05-21T02:38:49.003Z,100298.03
2023-05-21T02:39:01.838Z,100296.19
2023-05-21T02:39:14.768Z,100283.84
2023-05-21T02:39:27.486Z,100293.50
2023-05-21T02:39:40.020Z,100283.84